| Record Date MM/DD/YYYY | Record Time HH:MM:SS | Record Julian Date NNN day of the year | Air Temperature Max (Degrees Fahrenheit F) | Time Max Air Temperature HH:MM:SS This is the time of max air temp for the prior hour interval listed for record [Time]. | Air Temperature Min (Degrees Fahrenheit F) | Time Min Air Temperature HH:MM:SS This is the time of min air temp for the prior hour interval listed for record [Time]. | Air Temperature Observed (Degrees Fahrenheit F) This is an instantaneous reading at the record [Time]. | Relative Humidity Max (Percent) | Time Max Relative Humidity HH:MM:SS This is the time of max relative humidity for the prior hour interval listed for record [Time]. | Relative Humidity Min (Percent) | Time Min Relative Humidity HH:MM:SS This is the time of min relative humidity for the prior hour interval listed for record [Time]. | Relative Humidity Observed (Percent) This is an instantaneous reading at the record [Time]. | Precipitation (Inches n.nn) rain fall that occurred during the prior hour interval listed for record [Time]. | Wind Speed (Miles Per Hour) Resultant Speed that occurred during the prior hour interval listed for record [Time]. | Wind Direction (Degrees) Resultant Direction that occurred during the prior hour interval listed for record [Time]. | Solar Radiation (Langley's) that occurred during the prior hour interval listed for record [Time]. | Soil Temperature Average at 2 inch depth (Degrees Fahrenheit F) that occurred during the prior hour interval listed for record [Time]. | Soil Temperature Observed at 2 inch depth (Degrees Fahrenheit F) This is an instantaneous reading at the record [Time]. | Soil Temperature Average at 4 inch depth (Degrees Fahrenheit F) that occurred during the prior hour interval listed for record [Time]. | Soil Temperature Observed at 4 inch depth (Degrees Fahrenheit F) This is an instantaneous reading at the record [Time]. |
|---|---|---|---|---|---|---|---|---|---|---|---|---|---|---|---|---|---|---|---|---|
| 05/02/2026 | 0:00:00 | 122 | 59 | 23:12:03 | 58 | 23:56:01 | 58 | 95 | 23:43:00 | 92 | 23:00:02 | 94.4 | 0 | 1.7 | 300 | |||||
| 05/02/2026 | 1:00:00 | 122 | 59 | 0:47:05 | 58 | 0:02:00 | 59 | 94 | 0:00:01 | 84 | 0:57:01 | 84.3 | 0 | 5.3 | 350 | |||||
| 05/02/2026 | 2:00:00 | 122 | 59 | 1:00:01 | 58 | 1:52:05 | 58 | 85 | 1:04:02 | 73 | 1:59:04 | 73.16 | 0 | 4.9 | 12 | |||||
| 05/02/2026 | 3:00:00 | 122 | 58 | 2:00:03 | 57 | 2:59:04 | 57 | 77 | 2:58:01 | 72 | 2:54:03 | 74.21 | 0 | 4.9 | 10 | |||||
| 05/02/2026 | 4:00:00 | 122 | 57 | 3:00:05 | 56 | 3:58:00 | 56 | 77 | 3:20:02 | 72 | 3:37:05 | 74.56 | 0 | 5.0 | 356 | |||||
| 05/02/2026 | 5:00:00 | 122 | 57 | 4:59:00 | 56 | 4:07:01 | 56 | 77 | 4:06:04 | 68 | 4:57:02 | 71.34 | 0 | 4.3 | 4 | |||||
| 05/02/2026 | 6:00:00 | 122 | 56 | 5:00:01 | 55 | 5:42:02 | 56 | 75 | 5:36:03 | 67 | 5:10:05 | 72.86 | 0 | 5.4 | 354 | |||||
| 05/02/2026 | 7:00:00 | 122 | 57 | 6:54:02 | 56 | 6:02:01 | 56 | 75 | 6:30:04 | 69 | 6:57:03 | 71.68 | 0 | 6.0 | 349 | |||||
| 05/02/2026 | 8:00:00 | 122 | 59 | 7:54:04 | 56 | 7:00:02 | 59 | 75 | 7:08:05 | 61 | 7:55:00 | 61.91 | 0 | 7.0 | 7 | |||||
| 05/02/2026 | 9:00:00 | 122 | 61 | 8:53:05 | 59 | 8:00:01 | 61 | 67 | 8:02:04 | 55 | 8:56:05 | 61.81 | 0 | 7.9 | 12 | |||||
| 05/02/2026 | 10:00:00 | 122 | 65 | 10:00:00 | 62 | 9:01:01 | 65 | 63 | 9:05:03 | 47 | 9:45:01 | 51.75 | 0 | 8.1 | 8 | |||||
| 05/02/2026 | 11:00:00 | 122 | 67 | 11:00:00 | 65 | 10:03:01 | 67 | 57 | 10:03:05 | 41 | 10:57:03 | 48.47 | 0 | 9.9 | 353 | |||||
| 05/02/2026 | 12:00:00 | 122 | 69 | 11:58:00 | 67 | 11:12:04 | 69 | 51 | 11:57:03 | 39 | 11:30:03 | 42.9 | 0 | 11.0 | 359 | |||||
| 05/02/2026 | 13:00:00 | 122 | 70 | 12:59:01 | 68 | 12:02:03 | 70 | 50 | 12:17:04 | 37 | 12:59:02 | 38.72 | 0 | 10.1 | 8 | |||||
| 05/02/2026 | 14:00:00 | 122 | 72 | 13:59:02 | 70 | 13:01:03 | 72 | 48 | 13:09:01 | 35 | 13:49:04 | 41.03 | 0 | 10.0 | 348 | |||||
| 05/02/2026 | 15:00:00 | 122 | 72 | 14:00:01 | 69 | 14:53:04 | 70 | 46 | 14:03:03 | 34 | 14:15:01 | 41.21 | 0 | 10.5 | 357 | |||||
| 05/02/2026 | 16:00:00 | 122 | 72 | 15:21:02 | 69 | 15:38:01 | 71 | 46 | 15:41:03 | 35 | 15:53:05 | 39.88 | 0 | 9.3 | 351 | |||||
| 05/02/2026 | 17:00:00 | 122 | 71 | 16:08:02 | 68 | 16:42:03 | 70 | 45 | 16:19:01 | 36 | 16:01:03 | 39.98 | 0 | 7.6 | 347 | |||||
| 05/02/2026 | 18:00:00 | 122 | 71 | 17:02:05 | 68 | 17:59:03 | 68 | 50 | 17:52:04 | 37 | 17:20:04 | 45.35 | 0 | 5.9 | 331 | |||||
| 05/02/2026 | 19:00:00 | 122 | 68 | 18:00:01 | 60 | 19:00:00 | 60 | 67 | 18:52:02 | 44 | 18:17:03 | 64.72 | 0 | 2.6 | 308 | |||||
| 05/02/2026 | 20:00:00 | 122 | 60 | 19:00:01 | 58 | 20:00:00 | 58 | 66 | 19:03:00 | 61 | 19:27:04 | 65.15 | 0 | 0.2 | 260 | |||||
| 05/02/2026 | 21:00:00 | 122 | 58 | 20:00:01 | 54 | 20:37:04 | 56 | 80 | 20:41:05 | 65 | 20:00:01 | 78.61 | 0 | 0.2 | 261 | |||||
| 05/02/2026 | 22:00:00 | 122 | 56 | 21:16:05 | 54 | 21:45:00 | 54 | 82 | 21:44:03 | 72 | 21:16:04 | 78.79 | 0 | 0.3 | 264 | |||||
| 05/02/2026 | 23:00:00 | 122 | 54 | 22:02:00 | 52 | 22:48:02 | 52 | 85 | 22:53:01 | 78 | 22:06:02 | 84 | 0 | 0.0 | 244 | |||||
| 05/03/2026 | 0:00:00 | 123 | 52 | 23:00:01 | 51 | 23:59:05 | 51 | 87 | 0:00:00 | 84 | 23:00:05 | 87.3 | 0 | 0.0 | 235 | |||||
| 05/03/2026 | 1:00:00 | 123 | 54 | 0:48:04 | 51 | 0:31:04 | 54 | 92 | 0:33:04 | 77 | 0:52:00 | 78.08 | 0 | 2.2 | 359 | |||||
| 05/03/2026 | 2:00:00 | 123 | 54 | 1:00:01 | 52 | 1:59:05 | 52 | 83 | 1:59:04 | 78 | 1:17:00 | 83.3 | 0 | 2.9 | 24 | |||||
| 05/03/2026 | 3:00:00 | 123 | 52 | 2:00:01 | 48 | 2:59:05 | 48 | 90 | 3:00:00 | 83 | 2:00:01 | 89.8 | 0 | 0.6 | 24 | |||||
| 05/03/2026 | 4:00:00 | 123 | 48 | 3:01:03 | 46 | 3:49:05 | 47 | 94 | 3:57:03 | 90 | 3:00:01 | 93.8 | 0 | 0.0 | 182 | |||||
| 05/03/2026 | 5:00:00 | 123 | 47 | 4:01:03 | 45 | 4:59:03 | 45 | 95 | 4:55:03 | 94 | 4:03:02 | 95.1 | 0 | 0.0 | 0 | |||||
| 05/03/2026 | 6:00:00 | 123 | 52 | 6:00:00 | 45 | 5:01:04 | 52 | 96 | 5:12:01 | 94 | 5:58:05 | 93.9 | 0 | 0.0 | 244 | |||||
| 05/03/2026 | 7:00:00 | 123 | 58 | 6:55:04 | 52 | 6:00:01 | 57 | 94 | 6:00:03 | 72 | 6:59:01 | 73.86 | 0 | 0.6 | 6 | |||||
| 05/03/2026 | 8:00:00 | 123 | 62 | 7:58:05 | 57 | 7:00:02 | 62 | 75 | 7:09:01 | 64 | 7:59:03 | 64.93 | 0.01 | 1.7 | 39 | |||||
| 05/03/2026 | 9:00:00 | 123 | 65 | 8:53:03 | 61 | 8:02:04 | 65 | 70 | 8:04:04 | 48 | 8:59:01 | 51.33 | 0 | 1.9 | 40 | |||||
| 05/03/2026 | 10:00:00 | 123 | 68 | 9:59:01 | 65 | 9:00:01 | 68 | 55 | 9:07:05 | 42 | 9:39:04 | 43.43 | 0 | 2.8 | 27 | |||||
| 05/03/2026 | 11:00:00 | 123 | 70 | 10:49:02 | 67 | 10:38:01 | 70 | 51 | 10:40:01 | 41 | 10:34:04 | 46.19 | 0 | 2.0 | 204 | |||||
| 05/03/2026 | 12:00:00 | 123 | 72 | 11:43:00 | 69 | 11:10:04 | 71 | 48 | 11:54:04 | 39 | 11:33:04 | 42.08 | 0 | 2.4 | 326 | |||||
| 05/03/2026 | 13:00:00 | 123 | 74 | 12:53:01 | 71 | 12:02:04 | 73 | 49 | 12:25:00 | 39 | 12:12:05 | 44.64 | 0 | 2.6 | 7 | |||||
| 05/03/2026 | 14:00:00 | 123 | 75 | 13:16:00 | 72 | 13:01:01 | 74 | 48 | 13:14:04 | 38 | 13:17:00 | 41.25 | 0 | 3.9 | 1 | |||||
| 05/03/2026 | 15:00:00 | 123 | 76 | 15:00:00 | 74 | 14:05:00 | 76 | 47 | 14:06:05 | 36 | 14:58:02 | 37.15 | 0 | 3.3 | 358 | |||||
| 05/03/2026 | 16:00:00 | 123 | 77 | 15:32:03 | 75 | 15:58:01 | 76 | 43 | 15:01:01 | 33 | 15:33:01 | 39.35 | 0 | 2.9 | 284 | |||||
| 05/03/2026 | 17:00:00 | 123 | 79 | 16:36:01 | 76 | 16:48:01 | 76 | 43 | 16:01:00 | 33 | 16:32:04 | 39.56 | 0 | 1.9 | 29 | |||||
| 05/03/2026 | 18:00:00 | 123 | 79 | 17:22:00 | 75 | 17:59:05 | 75 | 46 | 18:00:00 | 35 | 17:24:00 | 45.5 | 0 | 0.6 | 115 | |||||
| 05/03/2026 | 19:00:00 | 123 | 75 | 18:00:01 | 63 | 19:00:00 | 63 | 70 | 18:58:02 | 46 | 18:00:01 | 69.96 | 0 | 0.3 | 160 | |||||
| 05/03/2026 | 20:00:00 | 123 | 63 | 19:00:01 | 61 | 19:59:05 | 61 | 82 | 20:00:00 | 70 | 19:00:01 | 82.2 | 0 | 0.2 | 152 | |||||
| 05/03/2026 | 21:00:00 | 123 | 61 | 20:00:02 | 58 | 21:00:00 | 58 | 86 | 20:17:04 | 82 | 20:48:02 | 84.5 | 0 | 0.1 | 217 | |||||
| 05/03/2026 | 22:00:00 | 123 | 58 | 21:00:01 | 56 | 21:43:00 | 57 | 90 | 21:49:04 | 85 | 21:00:01 | 89.1 | 0 | 0.1 | 233 | |||||
| 05/03/2026 | 23:00:00 | 123 | 57 | 22:00:01 | 55 | 22:30:04 | 56 | 91 | 22:41:05 | 89 | 22:01:00 | 89.1 | 0 | 0.2 | 168 | |||||
| 05/04/2026 | 0:00:00 | 124 | 56 | 23:00:01 | 53 | 0:00:00 | 53 | 93 | 23:56:02 | 89 | 23:01:05 | 93.2 | 0 | 0.0 | 0 | |||||
| 05/04/2026 | 1:00:00 | 124 | 53 | 0:00:02 | 52 | 0:54:00 | 52 | 95 | 0:58:00 | 93 | 0:01:00 | 95 | 0 | 0.0 | 0 | |||||
| 05/04/2026 | 2:00:00 | 124 | 54 | 1:37:04 | 51 | 1:12:03 | 53 | 96 | 1:25:01 | 95 | 1:59:01 | 94.9 | 0 | 1.3 | 164 | |||||
| 05/04/2026 | 3:00:00 | 124 | 53 | 2:01:02 | 52 | 3:00:00 | 52 | 95 | 2:01:02 | 94 | 3:00:00 | 94.1 | 0 | 0.9 | 171 | |||||
| 05/04/2026 | 4:00:00 | 124 | 52 | 3:00:01 | 50 | 3:59:04 | 50 | 95 | 3:52:03 | 94 | 3:01:05 | 94.6 | 0 | 0.0 | 164 | |||||
| 05/04/2026 | 5:00:00 | 124 | 50 | 4:00:01 | 49 | 4:52:00 | 50 | 96 | 4:58:00 | 95 | 4:02:02 | 95.6 | 0 | 0.0 | 0 | |||||
| 05/04/2026 | 6:00:00 | 124 | 56 | 5:59:05 | 50 | 5:00:01 | 56 | 96 | 5:07:01 | 94 | 5:59:02 | 93.6 | 0 | 0.0 | 0 | |||||
| 05/04/2026 | 7:00:00 | 124 | 64 | 7:00:00 | 56 | 6:00:01 | 64 | 94 | 6:00:02 | 71 | 6:58:01 | 71.89 | 0 | 0.2 | 163 | |||||
| 05/04/2026 | 8:00:00 | 124 | 70 | 8:00:00 | 64 | 7:00:01 | 70 | 72 | 7:01:00 | 62 | 7:59:03 | 62.52 | 0 | 0.6 | 171 | |||||
| 05/04/2026 | 9:00:00 | 124 | 74 | 9:00:00 | 70 | 8:00:01 | 74 | 64 | 8:30:03 | 53 | 8:58:00 | 54.37 | 0 | 2.2 | 228 | |||||
| 05/04/2026 | 10:00:00 | 124 | 78 | 9:59:03 | 74 | 9:07:05 | 77 | 57 | 9:02:00 | 45 | 9:47:01 | 45.49 | 0 | 5.7 | 231 | |||||
| 05/04/2026 | 11:00:00 | 124 | 79 | 10:58:05 | 76 | 10:23:00 | 78 | 50 | 10:03:04 | 42 | 10:55:00 | 44.75 | 0 | 5.1 | 234 | |||||
| 05/04/2026 | 12:00:00 | 124 | 80 | 11:59:05 | 77 | 11:14:03 | 80 | 50 | 11:05:00 | 39 | 11:47:01 | 41.63 | 0 | 4.3 | 238 | |||||
| 05/04/2026 | 13:00:00 | 124 | 81 | 12:52:00 | 79 | 12:37:01 | 81 | 45 | 12:56:01 | 37 | 12:20:04 | 39.09 | 0 | 5.0 | 208 | |||||
| 05/04/2026 | 14:00:00 | 124 | 82 | 14:00:00 | 80 | 13:27:03 | 82 | 43 | 13:02:04 | 34 | 13:15:03 | 37.35 | 0 | 4.9 | 197 | |||||
| 05/04/2026 | 15:00:00 | 124 | 83 | 14:00:04 | 80 | 14:08:04 | 81 | 39 | 14:07:00 | 33 | 14:37:02 | 35.72 | 0 | 5.9 | 219 | |||||
| 05/04/2026 | 16:00:00 | 124 | 83 | 15:50:04 | 81 | 15:03:05 | 81 | 40 | 15:44:05 | 35 | 15:52:04 | 38.21 | 0 | 4.5 | 194 | |||||
| 05/04/2026 | 17:00:00 | 124 | 82 | 16:06:00 | 80 | 16:35:03 | 81 | 40 | 16:37:00 | 36 | 16:10:04 | 38.78 | 0 | 3.8 | 194 | |||||
| 05/04/2026 | 18:00:00 | 124 | 81 | 17:00:01 | 78 | 18:00:00 | 78 | 43 | 18:00:00 | 36 | 17:07:04 | 43.28 | 0 | 2.3 | 202 | |||||
| 05/04/2026 | 19:00:00 | 124 | 78 | 18:00:01 | 70 | 19:00:00 | 70 | 56 | 18:57:05 | 43 | 18:00:01 | 56.06 | 0 | 0.1 | 165 | |||||
| 05/04/2026 | 20:00:00 | 124 | 70 | 19:00:01 | 67 | 19:42:01 | 69 | 64 | 19:29:02 | 56 | 19:00:01 | 60.89 | 0 | 0.0 | 210 | |||||
| 05/04/2026 | 21:00:00 | 124 | 69 | 20:07:03 | 66 | 21:00:00 | 66 | 67 | 21:00:00 | 60 | 20:05:02 | 67.13 | 0 | 0.0 | 198 | |||||
| 05/04/2026 | 22:00:00 | 124 | 66 | 21:00:01 | 62 | 22:00:00 | 62 | 77 | 21:57:01 | 67 | 21:00:01 | 76.77 | 0 | 0.0 | 170 | |||||
| 05/04/2026 | 23:00:00 | 124 | 62 | 22:00:01 | 60 | 22:40:05 | 62 | 83 | 22:30:02 | 77 | 22:03:00 | 78.86 | 0 | 0.2 | 167 | |||||
| 05/05/2026 | 0:00:00 | 125 | 64 | 23:17:00 | 62 | 23:00:01 | 62 | 79 | 23:00:01 | 73 | 23:16:04 | 76.3 | 0 | 0.9 | 187 | |||||
| 05/05/2026 | 1:00:00 | 125 | 62 | 0:00:01 | 61 | 0:57:01 | 61 | 81 | 0:58:04 | 76 | 0:00:01 | 80.4 | 0 | 1.3 | 186 | |||||
| 05/05/2026 | 2:00:00 | 125 | 61 | 1:09:00 | 59 | 2:00:00 | 59 | 85 | 2:00:00 | 80 | 1:00:03 | 85 | 0 | 0.6 | 185 | |||||
| 05/05/2026 | 3:00:00 | 125 | 59 | 2:00:01 | 58 | 2:58:03 | 58 | 88 | 3:00:00 | 85 | 2:00:01 | 88 | 0 | 0.4 | 162 | |||||
| 05/05/2026 | 4:00:00 | 125 | 58 | 3:00:04 | 58 | 3:59:03 | 58 | 89 | 3:59:05 | 88 | 3:02:05 | 89.1 | 0 | 1.1 | 167 | |||||
| 05/05/2026 | 5:00:00 | 125 | 58 | 4:06:00 | 57 | 4:58:01 | 57 | 90 | 4:59:02 | 89 | 4:00:01 | 90.3 | 0 | 2.1 | 165 | |||||
| 05/05/2026 | 6:00:00 | 125 | 60 | 5:55:04 | 57 | 5:08:00 | 60 | 91 | 5:16:01 | 84 | 5:59:01 | 84.3 | 0 | 1.8 | 165 | |||||
| 05/05/2026 | 7:00:00 | 125 | 65 | 6:52:05 | 60 | 6:00:03 | 65 | 85 | 6:02:01 | 76 | 6:58:00 | 77.85 | 0 | 2.3 | 171 | |||||
| 05/05/2026 | 8:00:00 | 125 | 69 | 7:59:05 | 64 | 7:01:03 | 69 | 78 | 7:02:01 | 71 | 7:47:05 | 71.68 | 0 | 3.5 | 179 | |||||
| 05/05/2026 | 9:00:00 | 125 | 73 | 8:58:03 | 69 | 8:00:02 | 73 | 72 | 8:00:01 | 66 | 8:59:01 | 66.99 | 0 | 2.7 | 182 | |||||
| 05/05/2026 | 10:00:00 | 125 | 74 | 9:44:01 | 73 | 9:05:05 | 73 | 68 | 9:01:04 | 62 | 9:44:05 | 64.54 | 0 | 4.9 | 204 | |||||
| 05/05/2026 | 11:00:00 | 125 | 77 | 10:57:04 | 73 | 10:01:04 | 77 | 67 | 10:05:02 | 56 | 10:58:03 | 57.5 | 0 | 5.6 | 199 | |||||
| 05/05/2026 | 12:00:00 | 125 | 78 | 11:53:04 | 76 | 11:05:05 | 78 | 61 | 11:16:03 | 55 | 11:54:02 | 58.07 | 0.01 | 5.8 | 200 | |||||
| 05/05/2026 | 13:00:00 | 125 | 79 | 12:25:04 | 77 | 12:33:01 | 78 | 61 | 12:59:01 | 56 | 12:26:04 | 59.82 | 0 | 5.2 | 185 | |||||
| 05/05/2026 | 14:00:00 | 125 | 78 | 13:01:01 | 76 | 13:36:04 | 77 | 64 | 13:59:00 | 58 | 13:01:03 | 63.15 | 0 | 4.1 | 183 | |||||
| 05/05/2026 | 15:00:00 | 125 | 77 | 14:12:05 | 77 | 14:47:03 | 77 | 66 | 14:55:01 | 62 | 14:19:02 | 65.26 | 0 | 2.6 | 166 | |||||
| 05/05/2026 | 16:00:00 | 125 | 79 | 15:20:00 | 77 | 15:55:04 | 77 | 68 | 15:59:00 | 62 | 15:16:01 | 67.52 | 0 | 1.8 | 165 | |||||
| 05/05/2026 | 17:00:00 | 125 | 77 | 16:10:04 | 76 | 16:49:05 | 76 | 73 | 16:59:05 | 66 | 16:08:02 | 73.1 | 0 | 0.7 | 164 | |||||
| 05/05/2026 | 18:00:00 | 125 | 76 | 17:05:01 | 75 | 17:58:04 | 75 | 75 | 17:35:05 | 72 | 17:11:00 | 74.11 | 0 | 0.3 | 159 | |||||
| 05/05/2026 | 19:00:00 | 125 | 75 | 18:00:02 | 74 | 18:57:03 | 74 | 76 | 19:00:00 | 74 | 18:00:01 | 76.2 | 0 | 0.3 | 170 | |||||
| 05/05/2026 | 20:00:00 | 125 | 74 | 19:33:02 | 74 | 19:58:05 | 74 | 77 | 20:00:00 | 76 | 19:29:02 | 76.77 | 0 | 2.6 | 167 | |||||
| 05/05/2026 | 21:00:00 | 125 | 74 | 20:59:04 | 74 | 20:30:02 | 74 | 77 | 20:30:05 | 75 | 20:59:02 | 75.02 | 0 | 4.0 | 172 | |||||
| 05/05/2026 | 22:00:00 | 125 | 74 | 21:06:03 | 73 | 22:00:00 | 73 | 78 | 21:59:05 | 75 | 21:09:01 | 77.88 | 0 | 4.3 | 174 | |||||
| 05/05/2026 | 23:00:00 | 125 | 73 | 22:00:01 | 71 | 22:59:05 | 71 | 82 | 23:00:00 | 78 | 22:00:01 | 81.8 | 0 | 3.8 | 170 | |||||
| 05/06/2026 | 0:00:00 | 126 | 71 | 23:00:02 | 70 | 23:58:03 | 70 | 86 | 23:59:03 | 82 | 23:00:01 | 85.6 | 0 | 2.5 | 166 | |||||
| 05/06/2026 | 1:00:00 | 126 | 70 | 0:00:02 | 69 | 0:39:05 | 69 | 88 | 0:59:04 | 86 | 0:00:01 | 88.1 | 0 | 3.0 | 165 | |||||
| 05/06/2026 | 2:00:00 | 126 | 69 | 1:00:02 | 68 | 1:51:05 | 69 | 90 | 1:59:04 | 88 | 1:01:04 | 90.2 | 0 | 3.1 | 162 | |||||
| 05/06/2026 | 3:00:00 | 126 | 69 | 2:00:03 | 68 | 2:33:01 | 68 | 92 | 3:00:00 | 90 | 2:00:04 | 91.6 | 0 | 2.2 | 162 | |||||
| 05/06/2026 | 4:00:00 | 126 | 69 | 4:00:00 | 68 | 3:01:04 | 69 | 93 | 3:44:04 | 92 | 3:00:01 | 92.4 | 0 | 0.8 | 164 | |||||
| 05/06/2026 | 5:00:00 | 126 | 70 | 4:52:04 | 69 | 4:00:03 | 70 | 92 | 4:00:01 | 91 | 4:51:03 | 90.7 | 0 | 2.9 | 174 | |||||
| 05/06/2026 | 6:00:00 | 126 | 70 | 5:12:04 | 70 | 5:58:00 | 70 | 91 | 5:59:05 | 91 | 5:01:05 | 91.3 | 0 | 2.7 | 172 | |||||
| 05/06/2026 | 7:00:00 | 126 | 73 | 7:00:00 | 70 | 6:02:01 | 73 | 92 | 6:09:00 | 87 | 7:00:00 | 87 | 0 | 2.8 | 170 | |||||
| 05/06/2026 | 8:00:00 | 126 | 75 | 7:59:03 | 72 | 7:12:05 | 75 | 89 | 7:15:01 | 84 | 7:59:05 | 84.4 | 0 | 3.5 | 186 | |||||
| 05/06/2026 | 9:00:00 | 126 | 77 | 8:48:01 | 74 | 8:04:04 | 77 | 86 | 8:06:00 | 82 | 8:50:02 | 82.8 | 0 | 5.0 | 193 | |||||
| 05/06/2026 | 10:00:00 | 126 | 79 | 9:59:04 | 76 | 9:01:05 | 79 | 84 | 9:49:02 | 81 | 10:00:00 | 81.2 | 0 | 5.1 | 196 | |||||
| 05/06/2026 | 11:00:00 | 126 | 79 | 10:58:00 | 78 | 10:17:05 | 79 | 83 | 10:19:03 | 78 | 10:58:03 | 78.97 | 0 | 4.6 | 189 | |||||
| 05/06/2026 | 12:00:00 | 126 | 80 | 11:11:03 | 77 | 11:59:02 | 77 | 83 | 12:00:00 | 77 | 11:12:01 | 82.9 | 0 | 4.8 | 196 | |||||
| 05/06/2026 | 13:00:00 | 126 | 77 | 12:00:01 | 76 | 12:29:00 | 77 | 90 | 12:37:02 | 83 | 12:00:05 | 88.3 | 0 | 1.5 | 176 | |||||
| 05/06/2026 | 14:00:00 | 126 | 80 | 13:30:00 | 77 | 13:02:02 | 77 | 88 | 13:05:00 | 83 | 13:32:03 | 87.9 | 0 | 3.6 | 175 | |||||
| 05/06/2026 | 15:00:00 | 126 | 79 | 14:19:02 | 77 | 14:00:02 | 79 | 90 | 14:40:03 | 85 | 14:20:02 | 89.5 | 0 | 2.4 | 172 | |||||
| 05/06/2026 | 16:00:00 | 126 | 79 | 15:00:01 | 77 | 15:24:05 | 77 | 91 | 15:39:01 | 88 | 15:02:04 | 90.7 | 0 | 1.2 | 177 | |||||
| 05/06/2026 | 17:00:00 | 126 | 77 | 16:00:02 | 76 | 16:54:05 | 76 | 93 | 16:59:05 | 91 | 16:03:00 | 93.2 | 0 | 0.3 | 166 | |||||
| 05/06/2026 | 18:00:00 | 126 | 76 | 17:00:01 | 65 | 17:58:03 | 65 | 96 | 17:59:03 | 92 | 17:26:01 | 95.4 | 0 | 6.5 | 353 | |||||
| 05/06/2026 | 19:00:00 | 126 | 65 | 18:00:01 | 64 | 18:50:03 | 64 | 96 | 18:26:03 | 95 | 18:04:01 | 95.6 | 0 | 7.6 | 359 | |||||
| 05/06/2026 | 20:00:00 | 126 | 65 | 19:37:02 | 64 | 19:59:03 | 64 | 96 | 19:24:00 | 96 | 19:37:01 | 95.6 | 0 | 3.3 | 5 | |||||
| 05/06/2026 | 21:00:00 | 126 | 64 | 20:59:05 | 64 | 20:34:03 | 64 | 96 | 20:00:01 | 95 | 21:00:00 | 95.2 | 0 | 0.6 | 301 | |||||
| 05/06/2026 | 22:00:00 | 126 | 64 | 21:06:03 | 63 | 21:58:03 | 63 | 95 | 21:58:01 | 95 | 21:41:00 | 95.4 | 0 | 1.0 | 348 | |||||
| 05/06/2026 | 23:00:00 | 126 | 64 | 22:00:05 | 62 | 22:57:05 | 62 | 96 | 22:57:04 | 95 | 22:12:04 | 95.6 | 0 | 5.6 | 341 | |||||
| 05/07/2026 | 0:00:00 | 127 | 62 | 23:00:01 | 60 | 23:55:03 | 60 | 96 | 23:41:02 | 96 | 23:36:01 | 95.7 | 0 | 6.1 | 338 | |||||
| 05/07/2026 | 1:00:00 | 127 | 60 | 0:00:03 | 59 | 0:55:05 | 59 | 96 | 0:55:04 | 96 | 0:37:02 | 95.8 | 0 | 5.9 | 332 | |||||
| 05/07/2026 | 2:00:00 | 127 | 59 | 1:05:03 | 58 | 1:52:03 | 59 | 96 | 1:47:03 | 96 | 1:01:00 | 96.1 | 0 | 7.4 | 337 | |||||
| 05/07/2026 | 3:00:00 | 127 | 59 | 2:02:05 | 58 | 2:53:05 | 58 | 96 | 2:18:02 | 96 | 2:02:03 | 96 | 0 | 8.2 | 335 | |||||
| 05/07/2026 | 4:00:00 | 127 | 58 | 3:54:05 | 58 | 3:23:03 | 58 | 96 | 3:56:00 | 96 | 3:12:05 | 96.1 | 0 | 7.2 | 341 | |||||
| 05/07/2026 | 5:00:00 | 127 | 58 | 4:31:00 | 58 | 4:01:00 | 58 | 96 | 4:51:02 | 96 | 4:03:02 | 96.3 | 0 | 5.2 | 339 | |||||
| 05/07/2026 | 6:00:00 | 127 | 58 | 5:48:01 | 58 | 5:15:05 | 58 | 96 | 5:16:05 | 96 | 5:50:02 | 96.3 | 0 | 5.9 | 331 | |||||
| 05/07/2026 | 7:00:00 | 127 | 58 | 6:54:05 | 58 | 6:40:05 | 58 | 96 | 6:02:03 | 96 | 6:59:02 | 95.6 | 0 | 6.6 | 338 | |||||
| 05/07/2026 | 8:00:00 | 127 | 59 | 7:34:01 | 58 | 7:00:01 | 59 | 96 | 7:05:01 | 95 | 7:52:04 | 95.2 | 0 | 5.6 | 335 | |||||
| 05/07/2026 | 9:00:00 | 127 | 59 | 8:58:02 | 58 | 8:24:04 | 59 | 96 | 8:17:00 | 94 | 8:56:01 | 93.8 | 0 | 7.1 | 336 | |||||
| 05/07/2026 | 10:00:00 | 127 | 63 | 9:56:05 | 59 | 9:00:05 | 63 | 94 | 9:01:03 | 85 | 9:59:05 | 85.4 | 0 | 5.1 | 355 | |||||
| 05/07/2026 | 11:00:00 | 127 | 67 | 10:53:04 | 63 | 10:03:00 | 65 | 89 | 10:05:00 | 80 | 10:57:03 | 80.2 | 0 | 5.7 | 341 | |||||
| 05/07/2026 | 12:00:00 | 127 | 69 | 11:35:03 | 65 | 11:00:01 | 68 | 86 | 11:00:05 | 72 | 11:51:00 | 74.57 | 0 | 5.5 | 346 | |||||
| 05/07/2026 | 13:00:00 | 127 | 71 | 12:45:01 | 68 | 12:29:00 | 70 | 81 | 12:03:04 | 68 | 12:56:01 | 75.32 | 0 | 5.0 | 359 | |||||
| 05/07/2026 | 14:00:00 | 127 | 72 | 13:43:01 | 70 | 13:35:01 | 71 | 77 | 13:38:05 | 65 | 13:45:00 | 70.78 | 0 | 4.8 | 336 | |||||
| 05/07/2026 | 15:00:00 | 127 | 73 | 15:00:00 | 70 | 14:06:03 | 73 | 74 | 14:08:00 | 63 | 14:54:03 | 67.78 | 0 | 5.7 | 351 | |||||
| 05/07/2026 | 16:00:00 | 127 | 74 | 15:56:03 | 73 | 15:00:03 | 73 | 69 | 15:01:05 | 56 | 15:53:05 | 58.91 | 0 | 5.6 | 350 | |||||
| 05/07/2026 | 17:00:00 | 127 | 74 | 16:07:03 | 72 | 16:17:03 | 73 | 67 | 16:57:03 | 57 | 16:08:03 | 61.89 | 0 | 5.3 | 346 | |||||
| 05/07/2026 | 18:00:00 | 127 | 73 | 17:00:01 | 69 | 17:59:02 | 69 | 70 | 17:58:03 | 59 | 17:00:05 | 69.44 | 0 | 5.0 | 1 | |||||
| 05/07/2026 | 19:00:00 | 127 | 69 | 18:00:03 | 65 | 18:59:05 | 65 | 79 | 18:59:04 | 68 | 18:04:02 | 78.68 | 0 | 1.0 | 17 | |||||
| 05/07/2026 | 20:00:00 | 127 | 65 | 19:00:01 | 62 | 19:50:01 | 62 | 86 | 19:59:02 | 79 | 19:00:02 | 85.9 | 0 | 0.0 | 71 | |||||
| 05/07/2026 | 21:00:00 | 127 | 63 | 20:19:05 | 61 | 20:59:04 | 61 | 86 | 20:00:01 | 84 | 20:23:01 | 84.7 | 0 | 0.5 | 32 | |||||
| 05/07/2026 | 22:00:00 | 127 | 61 | 21:00:01 | 60 | 21:55:05 | 60 | 89 | 21:59:03 | 84 | 21:19:00 | 89.2 | 0 | 0.0 | 76 | |||||
| 05/07/2026 | 23:00:00 | 127 | 60 | 22:00:02 | 58 | 22:55:05 | 59 | 92 | 23:00:00 | 89 | 22:27:03 | 91.8 | 0 | 0.1 | 30 | |||||
| 05/08/2026 | 0:00:00 | 128 | 59 | 23:03:00 | 58 | 23:50:04 | 58 | 94 | 23:57:01 | 92 | 23:00:01 | 93.8 | 0 | 0.0 | 0 | |||||
| 05/08/2026 | 1:00:00 | 128 | 58 | 0:00:02 | 56 | 0:39:03 | 56 | 95 | 0:59:01 | 94 | 0:14:05 | 95.4 | 0 | 0.0 | 0 | |||||
| 05/08/2026 | 2:00:00 | 128 | 59 | 1:44:04 | 56 | 1:03:05 | 58 | 96 | 1:17:04 | 94 | 1:53:02 | 94.3 | 0 | 0.2 | 351 | |||||
| 05/08/2026 | 3:00:00 | 128 | 58 | 2:03:02 | 57 | 2:59:05 | 57 | 94 | 2:00:01 | 93 | 2:27:00 | 93.1 | 0 | 0.2 | 322 | |||||
| 05/08/2026 | 4:00:00 | 128 | 57 | 3:00:04 | 56 | 3:27:03 | 57 | 96 | 4:00:00 | 93 | 3:06:00 | 95.6 | 0 | 0.0 | 332 | |||||
| 05/08/2026 | 5:00:00 | 128 | 57 | 4:39:03 | 57 | 4:59:05 | 57 | 96 | 4:03:00 | 93 | 4:48:00 | 92.8 | 0 | 1.3 | 20 | |||||
| 05/08/2026 | 6:00:00 | 128 | 58 | 5:59:05 | 56 | 5:30:04 | 58 | 94 | 5:42:04 | 92 | 5:19:04 | 93.5 | 0 | 0.0 | 39 | |||||
| 05/08/2026 | 7:00:00 | 128 | 59 | 6:59:04 | 58 | 6:01:04 | 59 | 93 | 6:00:02 | 87 | 7:00:00 | 87.1 | 0 | 0.4 | 36 | |||||
| 05/08/2026 | 8:00:00 | 128 | 62 | 7:59:05 | 59 | 7:07:01 | 62 | 87 | 7:01:02 | 78 | 7:51:05 | 79.16 | 0 | 0.9 | 85 | |||||
| 05/08/2026 | 9:00:00 | 128 | 67 | 8:56:02 | 62 | 8:03:03 | 67 | 79 | 8:00:01 | 63 | 8:57:04 | 64.16 | 0 | 2.5 | 81 | |||||
| 05/08/2026 | 10:00:00 | 128 | 68 | 9:57:02 | 65 | 9:15:03 | 67 | 70 | 9:25:05 | 62 | 9:36:01 | 64.48 | 0 | 3.8 | 70 | |||||
| 05/08/2026 | 11:00:00 | 128 | 69 | 10:41:00 | 66 | 10:13:05 | 68 | 69 | 10:07:05 | 61 | 10:41:01 | 65.8 | 0 | 2.7 | 117 | |||||
| 05/08/2026 | 12:00:00 | 128 | 69 | 12:00:00 | 67 | 11:08:02 | 69 | 72 | 11:10:03 | 65 | 11:54:02 | 65.05 | 0 | 2.2 | 115 | |||||
| 05/08/2026 | 13:00:00 | 128 | 70 | 12:14:05 | 69 | 12:00:01 | 69 | 71 | 12:51:03 | 62 | 12:11:02 | 68.74 | 0 | 2.8 | 154 | |||||
| 05/08/2026 | 14:00:00 | 128 | 69 | 13:00:01 | 68 | 13:58:02 | 68 | 72 | 13:59:03 | 67 | 13:22:03 | 71.63 | 0 | 2.9 | 165 | |||||
| 05/08/2026 | 15:00:00 | 128 | 68 | 14:00:01 | 67 | 14:47:03 | 67 | 77 | 14:54:03 | 72 | 14:00:01 | 77.21 | 0 | 2.8 | 166 | |||||
| 05/08/2026 | 16:00:00 | 128 | 67 | 15:33:04 | 66 | 15:47:02 | 66 | 81 | 15:49:05 | 77 | 15:00:02 | 80.9 | 0 | 1.5 | 155 | |||||
| 05/08/2026 | 17:00:00 | 128 | 67 | 16:34:01 | 66 | 16:59:05 | 66 | 82 | 16:57:02 | 80 | 16:25:01 | 82 | 0 | 0.6 | 136 | |||||
| 05/08/2026 | 18:00:00 | 128 | 66 | 17:25:02 | 65 | 17:56:05 | 65 | 86 | 17:59:05 | 82 | 17:00:01 | 85.8 | 0 | 2.7 | 152 | |||||
| 05/08/2026 | 19:00:00 | 128 | 65 | 18:01:00 | 63 | 19:00:00 | 63 | 90 | 18:58:05 | 86 | 18:02:02 | 90 | 0 | 0.9 | 168 | |||||
| 05/08/2026 | 20:00:00 | 128 | 63 | 19:00:01 | 62 | 19:57:05 | 62 | 93 | 20:00:00 | 90 | 19:00:01 | 93 | 0 | 0.1 | 138 | |||||
| 05/08/2026 | 21:00:00 | 128 | 62 | 20:00:05 | 61 | 20:59:04 | 61 | 95 | 21:00:00 | 93 | 20:01:01 | 94.7 | 0 | 0.0 | 107 | |||||
| 05/08/2026 | 22:00:00 | 128 | 62 | 22:00:00 | 60 | 21:11:02 | 62 | 95 | 21:41:01 | 95 | 21:01:01 | 95.2 | 0 | 0.0 | 167 | |||||
| 05/08/2026 | 23:00:00 | 128 | 62 | 22:57:01 | 62 | 22:00:01 | 62 | 95 | 22:09:05 | 95 | 22:32:00 | 95.1 | 0 | 0.3 | 166 | |||||
| 05/09/2026 | 0:00:00 | 129 | 62 | 23:00:01 | 62 | 23:44:03 | 62 | 96 | 23:58:05 | 95 | 23:09:00 | 95.5 | 0.01 | 1.5 | 204 | |||||
| 05/09/2026 | 1:00:00 | 129 | 62 | 0:19:02 | 62 | 0:56:03 | 62 | 96 | 0:32:03 | 96 | 0:01:04 | 95.7 | 0 | 2.7 | 247 | |||||
| 05/09/2026 | 2:00:00 | 129 | 62 | 1:04:01 | 61 | 1:42:03 | 62 | 96 | 1:00:03 | 96 | 1:52:00 | 95.6 | 0 | 3.4 | 159 | |||||
| 05/09/2026 | 3:00:00 | 129 | 62 | 2:57:03 | 61 | 2:03:02 | 62 | 96 | 2:00:01 | 95 | 2:51:03 | 95.3 | 0 | 1.9 | 208 | |||||
| 05/09/2026 | 4:00:00 | 129 | 62 | 4:00:00 | 62 | 3:00:01 | 62 | 95 | 3:22:02 | 95 | 3:58:01 | 95 | 0 | 0.0 | 0 | |||||
| 05/09/2026 | 5:00:00 | 129 | 62 | 4:00:01 | 62 | 4:46:00 | 62 | 95 | 4:05:00 | 95 | 4:58:04 | 94.8 | 0 | 0.0 | 0 | |||||
| 05/09/2026 | 6:00:00 | 129 | 63 | 5:58:02 | 62 | 5:00:01 | 63 | 95 | 5:00:01 | 95 | 5:57:01 | 94.6 | 0 | 0.4 | 77 | |||||
| 05/09/2026 | 7:00:00 | 129 | 63 | 6:59:00 | 63 | 6:00:01 | 63 | 95 | 6:00:01 | 94 | 6:49:04 | 94.4 | 0 | 0.3 | 94 | |||||
| 05/09/2026 | 8:00:00 | 129 | 64 | 7:59:04 | 63 | 7:00:01 | 64 | 95 | 7:51:04 | 94 | 7:17:01 | 94.5 | 0 | 0.1 | 77 | |||||
| 05/09/2026 | 9:00:00 | 129 | 68 | 8:59:01 | 64 | 8:00:05 | 68 | 95 | 8:54:01 | 94 | 8:05:02 | 95.2 | 0 | 0.7 | 143 | |||||
| 05/09/2026 | 10:00:00 | 129 | 70 | 9:59:01 | 67 | 9:13:00 | 70 | 95 | 9:12:01 | 93 | 9:54:04 | 93.5 | 0 | 0.9 | 177 | |||||
| 05/09/2026 | 11:00:00 | 129 | 73 | 10:55:01 | 70 | 10:00:01 | 73 | 94 | 10:00:05 | 83 | 10:59:00 | 84.5 | 0 | 0.8 | 348 | |||||
| 05/09/2026 | 12:00:00 | 129 | 76 | 11:58:01 | 72 | 11:01:05 | 75 | 86 | 11:02:04 | 74 | 11:58:04 | 75.42 | 0 | 1.2 | 345 | |||||
| 05/09/2026 | 13:00:00 | 129 | 77 | 12:57:02 | 75 | 12:46:05 | 76 | 79 | 12:41:01 | 71 | 12:04:04 | 73.26 | 0 | 1.5 | 4 | |||||
| 05/09/2026 | 14:00:00 | 129 | 78 | 14:00:00 | 76 | 13:32:05 | 78 | 77 | 13:40:02 | 69 | 13:56:01 | 69.77 | 0 | 0.9 | 350 | |||||
| 05/09/2026 | 15:00:00 | 129 | 80 | 14:04:05 | 77 | 14:28:02 | 78 | 75 | 14:26:01 | 65 | 14:06:01 | 69.62 | 0 | 1.3 | 319 | |||||
| Average | 66.71 | 64.45 | 65.64 | 79.6 | 73.39 | 76.4 | 0 | 2.82 | 0 | 0 | 0 | 0 | 0 | |||||||
| Total | 0.03 |